Crowville, Louisiana
Current Conditions -  °F | °C
As of 3:53 AM on Saturday 29 Nov 2014 (Local Time) from KMLU Reporting Station
Overcast Overcast  
Wind Chill: 52°   Ceiling: 800
Heat Index: 52°   Visibility: 10mi
Dew Point: 49°   Wind: 8mph
Humidity: 89%   Direction: 180°S
Pressure: 30.12"   Gusts: NA
Location:  32.24°N, 91.59°W
Report Text: KMLU 290953Z AUTO 18007KT 10SM OVC008 11/09 A3012 RMK AO2 SLP200 T01110094
Loading
Personal Weather Stations






























Interactive Weather Map New forecast layout! Learn more

10-Day Weather Forecast

Advertisements
Track Severe Weather on mobile